Flight Track Log - Related Links

Times and Time Zones

All times are in EDT time to prevent confusion due to time zone crossing. See the PDT4306 flight status page for this flight to view local times or setup timezone preferences in your user account.

Time Position Orientation Groundspeed Altitude Reporting Facility
EDT Latitude Longitude Course Direction KTS MPH feet Rate Location/Type
Tue 05:33:32 AM 41.9141 -79.8615 295° West  Level FlightAware Approximate
Tue 05:37:14 AM 42.0322 -80.2058 121° Southeast 126 145 4,300  Level Cleveland Center
Tue 05:38:14 AM 42.0050 -80.1444 118° Southeast 145 167 5,800 1,350 Climbing Cleveland Center
Tue 05:39:14 AM 41.9819 -80.0861 118° Southeast 167 192 7,000 1,100 Climbing Cleveland Center
Tue 05:40:14 AM 41.9586 -80.0275 121° Southeast 179 206 8,000 1,050 Climbing Cleveland Center
Tue 05:41:14 AM 41.9311 -79.9664 122° Southeast 194 223 9,100 950 Climbing Cleveland Center
Tue 05:42:14 AM 41.8997 -79.8997 118° Southeast 200 230 9,900 1,000 Climbing Cleveland Center
Tue 05:43:14 AM 41.8719 -79.8303 117° Southeast 206 237 11,100 1,100 Climbing Cleveland Center
Tue 05:44:14 AM 41.8467 -79.7636 118° Southeast 206 237 12,100 900 Climbing Cleveland Center
Tue 05:45:14 AM 41.8169 -79.6889 115° Southeast 206 237 12,900 750 Climbing Cleveland Center
Tue 05:46:14 AM 41.7911 -79.6139 119° Southeast 218 251 13,600 800 Climbing Cleveland Center
Tue 05:47:14 AM 41.7614 -79.5419 117° Southeast 218 251 14,500 850 Climbing Cleveland Center
Tue 05:48:14 AM 41.7336 -79.4703 119° Southeast 218 251 15,300 750 Climbing Cleveland Center
Tue 05:49:14 AM 41.7036 -79.3983 123° Southeast 218 251 16,000 800 Climbing Cleveland Center
Tue 05:50:14 AM 41.6653 -79.3183 120° Southeast 226 260 16,900 500 Climbing Cleveland Center
Tue 05:51:14 AM 41.6311 -79.2386 121° Southeast 226 260 17,000 50 Climbing Cleveland Center
Tue 05:52:14 AM 41.5947 -79.1589 119° Southeast 233 268 17,000  Level Cleveland Center
Tue 05:53:14 AM 41.5603 -79.0764 118° Southeast 246 283 17,000  Level Cleveland Center
Tue 05:54:14 AM 41.5258 -78.9883 118° Southeast 251 289 17,000  Level Cleveland Center
Tue 05:55:14 AM 41.4933 -78.9061 119° Southeast 256 295 17,000  Level Cleveland Center
Tue 05:56:26 AM 41.4567 -78.8183 119° Southeast 261 300 17,000  Level Cleveland Center
Tue 05:57:26 AM 41.4153 -78.7197 120° Southeast 261 300 17,000  Level Cleveland Center
Tue 05:58:26 AM 41.3786 -78.6350 121° Southeast 261 300 17,000  Level Cleveland Center
Tue 06:00:25 AM 41.3122 -78.4892 123° Southeast 263 303 17,000 -34 Level New York Center
Tue 06:01:24 AM 41.2717 -78.4069 121° Southeast 258 297 16,900 -51 Descending New York Center
Tue 06:02:22 AM 41.2353 -78.3256 117° Southeast 258 297 16,900  Level New York Center
Tue 06:03:24 AM 41.2031 -78.2419 120° Southeast 258 297 16,900  Level New York Center
Tue 06:04:25 AM 41.1683 -78.1611 119° Southeast 258 297 16,900  Level New York Center
Tue 06:05:24 AM 41.1339 -78.0800 116° Southeast 258 297 16,900 50 Level New York Center
Tue 06:06:24 AM 41.1017 -77.9939 119° Southeast 258 297 17,000 50 Climbing New York Center
Tue 06:07:24 AM 41.0689 -77.9161 118° Southeast 258 297 17,000 -500 Level New York Center
Tue 06:08:24 AM 41.0344 -77.8300 116° Southeast 258 297 16,000 -1,068 Descending New York Center
Tue 06:09:22 AM 41.0003 -77.7358 118° Southeast 268 308 14,900 -1,109 Descending New York Center
Tue 06:10:23 AM 40.9639 -77.6439 117° Southeast 274 315 13,800 -1,091 Descending New York Center
Tue 06:11:23 AM 40.9261 -77.5439 116° Southeast 284 327 12,700 -893 Descending New York Center
Tue 06:12:24 AM 40.8917 -77.4500 117° Southeast 284 327 12,000 -350 Descending New York Center
Tue 06:13:23 AM 40.8572 -77.3614 118° Southeast 279 321 12,000  Level New York Center
Tue 06:14:24 AM 40.8258 -77.2844 121° Southeast 257 296 12,000  Level New York Center
Tue 06:15:22 AM 40.7925 -77.2100 117° Southeast 245 282 12,000  Level New York Center
Tue 06:16:25 AM 40.7614 -77.1303 118° Southeast 245 282 12,000 -100 Level New York Center
Tue 06:17:22 AM 40.7300 -77.0533 116° Southeast 240 276 11,800 -504 Descending New York Center
Tue 06:18:24 AM 40.6992 -76.9683 115° Southeast 235 270 11,000 -393 Descending New York Center
Tue 06:19:24 AM 40.6717 -76.8922 118° Southeast 230 265 11,000  Level New York Center
Tue 06:20:24 AM 40.6422 -76.8183 121° Southeast 230 265 11,000  Level New York Center
Tue 06:21:22 AM 40.6178 -76.7642 120° Southeast 230 265 11,000  Level New York Center
Tue 06:22:23 AM 40.5731 -76.6619 117° Southeast 240 276 11,000  Level New York Center
Tue 06:23:24 AM 40.5417 -76.5800 124° Southeast 248 285 11,000  Level New York Center
Tue 06:24:24 AM 40.5036 -76.5058 122° Southeast 257 296 11,000  Level New York Center
Tue 06:25:24 AM 40.4694 -76.4347 125° Southeast 252 290 11,000  Level New York Center
Tue 06:26:22 AM 40.4369 -76.3747 125° Southeast 252 290 11,000 43 Level New York Center
Tue 06:27:44 AM 40.3708 -76.2506 127° Southeast 250 288 11,100 -98 Climbing FAA TRACON SMA TRACON (SMA)
Tue 06:28:24 AM 40.3431 -76.2031 127° Southeast 250 288 10,800 -750 Descending FAA TRACON SMA TRACON (SMA)
Tue 06:29:04 AM 40.3133 -76.1511 127° Southeast 257 296 10,100 -1,050 Descending FAA TRACON SMA TRACON (SMA)
Tue 06:29:44 AM 40.2861 -76.1031 134° Southeast 267 307 9,400 -750 Descending FAA TRACON SMA TRACON (SMA)
Tue 06:30:24 AM 40.2511 -76.0556 136° Southeast 256 295 9,100 -225 Descending FAA TRACON SMA TRACON (SMA)
Tue 06:31:04 AM 40.2189 -76.0147 140° Southeast 244 281 9,100 -600 Level FAA TRACON SMA TRACON (SMA)
Tue 06:31:44 AM 40.1861 -75.9789 137° Southeast 240 276 8,300 -1,350 Descending FAA TRACON SMA TRACON (SMA)
Tue 06:32:24 AM 40.1514 -75.9367 133° Southeast 245 282 7,300 -800 Descending FAA TRACON SMA TRACON (SMA)
Tue 06:33:44 AM 40.0914 -75.8531 132° Southeast 242 278 6,700 -600 Descending FAA TRACON SMA TRACON (SMA)
Tue 06:34:24 AM 40.0594 -75.8072 132° Southeast 244 281 6,100 -450 Descending FAA TRACON SMA TRACON (SMA)
Tue 06:35:04 AM 40.0289 -75.7628 131° Southeast 237 273 6,100 -150 Level FAA TRACON SMA TRACON (SMA)
Tue 06:35:44 AM 40.0039 -75.7247 132° Southeast 226 260 5,900 -643 Descending FAA TRACON SMA TRACON (SMA)
Tue 06:37:24 AM 39.9325 -75.6222 129° Southeast 220 253 4,600 -611 Descending New York Center
Tue 06:39:30 AM 39.8586 -75.5022 111° Southeast 198 228 3,600 -604 Descending FAA TRACON SMA TRACON (SMA)
Tue 06:40:03 AM 39.8461 -75.4597 102° East 200 230 3,000 -1,068 Descending FAA TRACON SMA TRACON (SMA)
Tue 06:40:43 AM 39.8389 -75.4169 84° East 199 229 2,300 -1,050 Descending FAA TRACON SMA TRACON (SMA)
Tue 06:41:23 AM 39.8425 -75.3686 76° East 196 226 1,600 -1,050 Descending FAA TRACON SMA TRACON (SMA)
Tue 06:42:03 AM 39.8506 -75.3269 76° East 164 189 900 -889 Descending FAA TRACON SMA TRACON (SMA)
Tue 06:42:44 AM 39.8567 -75.2958 76° East 141 162 400 -519 Descending FAA TRACON SMA TRACON (SMA)
Tue 06:43:24 AM 39.8594 -75.2817 76° East 133 153 200 -300 Descending FAA TRACON SMA TRACON (SMA)

Login

Don't have an account? Register now (free) for customized features, flight alerts, and more!